Latest Weather Observations for Curtin

IDW60801

Issued at 4:13 am WST Wednesday 24 October 2018 (issued every 10 minutes, with the page automatically refreshed every 10 minutes)

About weather observations | Map of weather stations | Latest weather observations for WA | Other Formats
Station Details ID: 003080 Name: CURTIN AERO Lat: -17.58 Lon: 123.83 Height: 77.5 m
Data from the previous 72 hours. | See also: Recent months at Curtin
Date/Time
WST
Temp
°C
App
Temp
°C
Dew
Point
°C
Rel
Hum
%
Delta-T
°C
Wind Press
QNH
hPa
Press
MSL
hPa
Rain since
9am
mm
Dir  Spd
km/h
Gust
km/h
Spd
kts
Gust
kts
24/04:00am 23.0 26.6 23.0 100 0.0 N 9 11 5 6 1007.8 1007.2 0.0
24/03:30am 23.2 26.9 23.2 100 0.0 N 9 11 5 6 1007.7 1007.1 0.0
24/03:18am 23.2 26.9 23.2 100 0.0 N 9 13 5 7 1007.7 1007.1 0.0
24/03:00am 23.2 26.9 23.2 100 0.0 N 9 11 5 6 1007.7 1007.1 0.0
24/02:56am 23.2 26.9 23.2 100 0.0 N 9 11 5 6 1007.7 1007.1 0.0
24/02:30am 23.1 26.6 22.9 99 0.1 NNE 9 11 5 6 1007.8 1007.2 0.0
24/02:00am 23.2 26.6 22.7 97 0.3 NNE 9 9 5 5 1007.7 1007.1 0.0
24/01:30am 23.7 27.4 23.2 97 0.3 N 9 11 5 6 1007.8 1007.2 0.0
24/01:00am 23.8 27.4 23.0 95 0.5 N 9 11 5 6 1008.1 1007.5 0.0
24/12:30am 23.9 27.4 22.9 94 0.7 NNE 9 11 5 6 1008.3 1007.7 0.0
24/12:00am 24.5 28.4 22.9 91 1.1 N 7 9 4 5 1008.3 1007.7 0.0
 
Date/Time
WST
Temp
°C
App
Temp
°C
Dew
Point
°C
Rel
Hum
%
Delta-T
°C
Wind Press
QNH
hPa
Press
MSL
hPa
Rain since
9am
mm
Dir  Spd
km/h
Gust
km/h
Spd
kts
Gust
kts
23/11:30pm 25.5 29.1 23.7 90 1.2 N 11 15 6 8 1008.5 1007.9 0.0
23/11:00pm 25.8 29.4 23.7 88 1.4 N 11 15 6 8 1008.7 1008.1 0.0
23/10:30pm 25.8 29.2 23.3 86 1.7 N 11 13 6 7 1008.8 1008.2 0.0
23/10:00pm 27.0 31.1 23.9 83 2.1 NNW 9 11 5 6 1008.6 1008.0 0.0
23/09:30pm 27.2 31.3 23.9 82 2.3 NNW 9 11 5 6 1008.7 1008.1 0.0
23/09:00pm 27.6 31.5 23.6 79 2.8 NNW 9 13 5 7 1008.5 1007.9 0.0
23/08:30pm 28.1 32.3 23.5 76 3.2 NNW 7 11 4 6 1008.3 1007.7 0.0
23/08:00pm 28.3 31.8 22.8 72 3.8 NW 9 11 5 6 1007.8 1007.2 0.0
23/07:30pm 28.9 31.8 21.7 65 4.8 NW 9 11 5 6 1007.3 1006.7 0.0
23/07:00pm 30.0 32.2 20.5 56 6.3 NW 9 13 5 7 1007.0 1006.4 0.0
23/06:30pm 31.2 33.0 19.5 49 7.7 NW 9 11 5 6 1006.5 1005.9 0.0
23/06:00pm 32.5 33.9 18.7 44 9.0 NW 9 13 5 7 1006.1 1005.5 0.0
23/05:30pm 34.0 34.2 17.7 38 10.5 NNW 13 17 7 9 1005.8 1005.2 0.0
23/05:00pm 35.1 34.6 16.9 34 11.7 NW 15 19 8 10 1005.6 1005.0 0.0
23/04:30pm 36.0 35.8 17.7 34 11.9 NNW 15 20 8 11 1005.5 1004.9 0.0
23/04:00pm 36.9 36.1 18.0 33 12.4 NW 19 26 10 14 1005.5 1004.9 0.0
23/03:30pm 38.0 37.2 17.9 30 13.2 NW 19 26 10 14 1005.4 1004.8 0.0
23/03:00pm 38.5 36.9 18.4 31 13.3 WNW 24 33 13 18 1005.3 1004.7 0.0
23/02:30pm 39.6 39.2 18.8 30 13.9 NW 19 30 10 16 1005.3 1004.7 0.0
23/02:00pm 39.3 38.5 18.0 29 14.1 WNW 19 30 10 16 1005.8 1005.2 0.0
23/01:30pm 39.9 39.4 17.9 27 14.5 WNW 17 24 9 13 1006.1 1005.5 0.0
23/01:00pm 40.4 40.0 17.2 26 15.2 NW 15 26 8 14 1006.5 1005.9 0.0
23/12:30pm 40.0 39.5 14.9 22 15.9 W 11 17 6 9 1007.0 1006.4 0.0
23/12:00pm 39.2 38.6 13.6 22 15.9 ENE 9 17 5 9 1007.5 1006.9 0.0
23/11:30am 39.2 38.6 13.6 22 15.9 S 9 17 5 9 1008.1 1007.5 0.0
23/11:00am 37.0 36.1 13.7 25 14.4 ESE 11 20 6 11 1008.8 1008.2 0.0
23/10:30am 36.0 36.4 17.2 33 12.1 NNW 11 20 6 11 1009.1 1008.6 0.0
23/10:00am 35.2 36.2 18.7 37 10.9 NW 11 19 6 10 1009.4 1008.9 0.0
23/09:30am 33.4 34.4 18.7 41 9.6 N 11 15 6 8 1009.7 1009.2 0.0
23/09:00am 32.4 33.9 18.9 44 8.8 WNW 9 15 5 8 1009.8 1009.3 0.0
23/08:30am 31.0 32.8 20.3 53 7.1 NNW 11 19 6 10 1009.9 1009.4 0.0
23/08:00am 30.2 32.1 21.3 59 6.0 NNW 13 20 7 11 1009.8 1009.3 0.0
23/07:30am 28.3 30.7 23.7 76 3.2 N 17 24 9 13 1009.8 1009.3 0.0
23/07:00am 26.7 30.6 24.9 90 1.3 N 13 19 7 10 1009.6 1009.1 0.0
23/06:30am 24.6 29.1 24.6 100 0.0 NNE 9 13 5 7 1009.2 1008.7 0.0
23/06:24am 24.2 28.5 24.2 100 0.0 NNE 9 13 5 7 1009.1 1008.6 0.0
23/06:22am 24.1 28.3 24.1 100 0.0 NNE 9 13 5 7 1009.1 1008.6 0.0
23/06:00am 23.1 26.7 23.1 100 0.0 NE 9 11 5 6 1008.8 1008.2 0.0
23/05:38am 22.3 25.1 22.3 100 0.0 NNE 11 11 6 6 1008.6 1008.0 0.0
23/05:30am 22.1 25.2 22.1 100 0.0 N 9 11 5 6 1008.6 1008.0 0.0
23/05:00am 21.9 25.4 21.9 100 0.0 NNE 6 7 3 4 1008.3 1007.7 0.0
23/04:45am 22.5 26.4 22.5 100 0.0 NNE 6 9 3 5 1008.2 1007.6 0.0
23/04:30am 22.5 26.2 22.5 100 0.0 N 7 9 4 5 1008.1 1007.5 0.0
23/04:19am 22.7 26.1 22.7 100 0.0 N 9 11 5 6 1008.0 1007.4 0.0
23/04:00am 22.6 25.9 22.6 100 0.0 N 9 11 5 6 1007.8 1007.2 0.0
23/03:38am 22.6 25.9 22.6 100 0.0 NNE 9 9 5 5 1007.8 1007.2 0.0
23/03:30am 22.9 26.4 22.9 100 0.0 NNE 9 9 5 5 1007.9 1007.3 0.0
23/03:00am 23.2 26.9 23.2 100 0.0 N 9 11 5 6 1007.7 1007.1 0.0
23/02:30am 23.2 26.8 23.0 99 0.1 NNE 9 13 5 7 1007.6 1007.0 0.0
23/02:00am 23.3 26.9 23.0 98 0.2 N 9 13 5 7 1007.7 1007.1 0.0
23/01:30am 23.5 27.1 23.0 97 0.3 NNE 9 13 5 7 1007.8 1007.2 0.0
23/01:00am 23.7 27.2 22.9 95 0.5 NNE 9 11 5 6 1007.9 1007.3 0.0
23/12:30am 24.2 27.5 23.2 94 0.7 NE 11 13 6 7 1008.2 1007.6 0.0
23/12:00am 24.4 28.0 23.0 92 0.9 NE 9 11 5 6 1008.1 1007.5 0.0
 
Date/Time
WST
Temp
°C
App
Temp
°C
Dew
Point
°C
Rel
Hum
%
Delta-T
°C
Wind Press
QNH
hPa
Press
MSL
hPa
Rain since
9am
mm
Dir  Spd
km/h
Gust
km/h
Spd
kts
Gust
kts
22/11:30pm 25.2 29.5 23.6 91 1.1 N 7 11 4 6 1008.3 1007.7 0.0
22/11:00pm 25.7 30.2 23.9 90 1.2 NNW 7 11 4 6 1008.4 1007.8 0.0
22/10:30pm 26.2 30.3 23.9 87 1.6 NNW 9 11 5 6 1008.5 1007.9 0.0
22/10:00pm 26.5 30.4 23.6 84 2.0 N 9 11 5 6 1008.7 1008.1 0.0
22/09:30pm 27.7 32.0 24.3 82 2.4 NW 9 11 5 6 1008.6 1008.0 0.0
22/09:00pm 28.4 32.0 24.4 79 2.8 NW 13 17 7 9 1008.6 1008.0 0.0
22/08:30pm 28.6 32.4 23.5 74 3.5 NW 9 13 5 7 1008.2 1007.6 0.0
22/08:00pm 28.9 31.5 22.6 69 4.3 NNW 13 15 7 8 1008.0 1007.4 0.0
22/07:30pm 29.3 31.2 20.5 59 5.8 NW 11 13 6 7 1007.7 1007.1 0.0
22/07:00pm 30.0 31.8 18.8 51 7.3 NW 7 9 4 5 1007.1 1006.5 0.0
22/06:30pm 31.3 32.4 17.9 44 8.6 NW 9 11 5 6 1006.6 1006.0 0.0
22/06:00pm 33.0 33.2 16.8 38 10.3 NW 11 17 6 9 1006.3 1005.7 0.0
22/05:30pm 35.7 35.8 15.4 29 12.8 NW 9 17 5 9 1005.9 1005.3 0.0
22/05:00pm 39.0 37.9 12.0 20 16.4 WSW 9 17 5 9 1005.6 1005.0 0.0
22/04:30pm 41.5 38.4 3.7 10 20.6 W 9 13 5 7 1005.3 1004.7 0.0
22/04:00pm 41.4 37.7 2.2 9 20.9 S 11 20 6 11 1005.3 1004.7 0.0
22/03:30pm 41.6 37.8 3.8 10 20.6 SW 13 24 7 13 1005.3 1004.7 0.0
22/03:00pm 42.4 38.7 4.4 10 21.0 SSE 13 26 7 14 1005.4 1004.8 0.0
22/02:30pm 41.9 38.5 4.0 10 20.8 WSW 11 20 6 11 1005.8 1005.2 0.0
22/02:00pm 41.1 36.4 3.4 10 20.4 S 17 22 9 12 1006.2 1005.6 0.0
22/01:30pm 41.6 37.3 5.2 11 20.3 S 17 28 9 15 1006.6 1006.0 0.0
22/01:00pm 41.0 38.0 6.0 12 19.7 SE 11 26 6 14 1007.0 1006.4 0.0
22/12:30pm 39.8 36.7 7.3 14 18.5 SSW 13 24 7 13 1007.6 1007.0 0.0
22/12:00pm 39.7 35.7 8.2 15 18.2 SW 19 28 10 15 1008.3 1007.7 0.0
22/11:30am 38.8 35.6 8.5 16 17.5 SSW 15 26 8 14 1008.8 1008.2 0.0
22/11:00am 37.4 34.1 8.2 17 16.7 WSW 15 24 8 13 1009.4 1008.9 0.0
22/10:30am 36.6 33.4 8.4 18 16.1 SW 15 24 8 13 1009.9 1009.4 0.0
22/10:00am 35.9 32.8 8.7 19 15.5 SSW 15 26 8 14 1010.5 1010.0 0.0
22/09:30am 34.5 31.3 8.3 20 14.8 SSW 15 20 8 11 1010.8 1010.3 0.0
22/09:00am 33.2 31.7 10.5 25 13.2 SW 9 13 5 7 1011.2 1010.7 0.0
22/08:30am 31.7 30.7 10.4 27 12.2 WSW 6 9 3 5 1011.1 1010.6 0.0
22/08:00am 30.1 28.8 12.5 34 10.4 W 11 15 6 8 1011.1 1010.6 0.0
22/07:30am 28.8 28.2 14.6 42 8.6 WNW 11 15 6 8 1011.2 1010.7 0.0
22/07:00am 27.7 27.6 16.0 49 7.2 WNW 11 15 6 8 1011.0 1010.5 0.0
22/06:30am 26.1 26.6 16.6 55 5.9 NW 9 13 5 7 1010.7 1010.2 0.0
22/06:00am 24.2 25.0 17.2 65 4.4 N 9 13 5 7 1010.5 1010.0 0.0
22/05:30am 22.4 23.3 16.7 70 3.5 N 7 9 4 5 1010.0 1009.5 0.0
22/05:00am 22.4 23.4 16.9 71 3.4 N 7 9 4 5 1009.6 1009.1 0.0
22/04:30am 22.6 23.3 17.1 71 3.4 NNE 9 13 5 7 1009.3 1008.8 0.0
22/04:00am 22.3 22.3 16.3 69 3.7 NE 11 13 6 7 1008.9 1008.3 0.0
22/03:30am 22.1 22.2 15.5 66 4.0 NNE 9 11 5 6 1008.3 1007.7 0.0
22/03:00am 22.9 22.8 15.0 61 4.7 NNE 9 9 5 5 1008.0 1007.4 0.0
22/02:30am 25.3 25.9 15.9 56 5.7 WSW 7 9 4 5 1007.7 1007.1 0.0
22/02:00am 26.1 26.2 16.4 55 6.0 WSW 11 13 6 7 1007.5 1006.9 0.0
22/01:30am 26.5 26.4 16.1 52 6.4 WSW 11 11 6 6 1007.6 1007.0 0.0
22/01:00am 27.1 26.4 16.4 52 6.6 SW 15 17 8 9 1007.6 1007.0 0.0
22/12:30am 27.5 26.7 16.1 49 7.0 SW 15 20 8 11 1007.8 1007.2 0.0
22/12:00am 28.2 26.4 15.5 46 7.8 SW 19 24 10 13 1008.0 1007.4 0.0
 
Date/Time
WST
Temp
°C
App
Temp
°C
Dew
Point
°C
Rel
Hum
%
Delta-T
°C
Wind Press
QNH
hPa
Press
MSL
hPa
Rain since
9am
mm
Dir  Spd
km/h
Gust
km/h
Spd
kts
Gust
kts
21/11:30pm 28.4 26.4 13.9 41 8.7 SW 17 20 9 11 1008.2 1007.6 0.0
21/11:00pm 29.1 27.2 12.9 37 9.6 SW 15 19 8 10 1008.6 1008.0 0.0
21/10:30pm 29.1 27.5 12.9 37 9.6 WSW 13 15 7 8 1008.9 1008.3 0.0
21/10:00pm 29.6 28.2 13.4 37 9.7 WSW 13 17 7 9 1009.2 1008.7 0.0
21/09:30pm 30.4 28.6 13.2 35 10.3 WSW 15 20 8 11 1009.2 1008.7 0.0
21/09:00pm 30.6 28.9 12.5 33 10.7 SW 13 17 7 9 1009.0 1008.5 0.0
21/08:30pm 31.5 28.8 12.8 32 11.2 WSW 19 24 10 13 1008.7 1008.1 0.0
21/08:00pm 32.1 30.0 12.3 29 11.8 WSW 15 20 8 11 1008.5 1007.9 0.0
21/07:30pm 33.4 30.6 11.3 26 13.0 WSW 17 22 9 12 1008.3 1007.7 0.0
21/07:00pm 34.4 31.9 10.9 24 13.8 W 15 20 8 11 1007.7 1007.1 0.0
21/06:30pm 35.5 31.9 4.9 15 16.4 SSW 13 13 7 7 1006.8 1006.2 0.0
21/06:00pm 37.1 33.7 4.1 13 17.7 SSW 11 13 6 7 1006.5 1005.9 0.0
21/05:30pm 39.1 35.2 3.3 11 19.1 SSW 13 15 7 8 1006.2 1005.6 0.0
21/05:00pm 40.8 35.9 1.7 9 20.6 SSW 17 24 9 13 1006.0 1005.4 0.0
21/04:30pm 41.1 37.0 2.0 9 20.7 SW 13 22 7 12 1005.9 1005.3 0.0
21/04:00pm 41.5 36.6 2.3 9 20.9 S 17 26 9 14 1005.8 1005.2 0.0
21/03:30pm 41.3 37.2 2.1 9 20.8 SW 13 20 7 11 1005.9 1005.3 0.0
21/03:00pm 42.3 37.5 2.8 9 21.4 SSW 17 24 9 13 1006.0 1005.4 0.0
21/02:30pm 41.7 37.2 2.4 9 21.0 SSE 15 24 8 13 1006.3 1005.7 0.0
21/02:00pm 42.0 38.7 2.6 9 21.2 SSE 9 15 5 8 1006.8 1006.2 0.0
21/01:30pm 42.4 39.2 2.9 9 21.3 WSW 9 20 5 11 1007.3 1006.7 0.0
21/01:00pm 41.1 37.0 2.0 9 20.7 ESE 13 24 7 13 1007.8 1007.2 0.0
21/12:30pm 40.9 36.3 1.8 9 20.6 SSE 15 24 8 13 1008.3 1007.7 0.0
21/12:00pm 40.9 36.6 3.3 10 20.3 E 15 24 8 13 1008.7 1008.1 0.0
21/11:30am 40.2 34.9 2.8 10 19.9 SSE 20 28 11 15 1009.4 1008.9 0.0
21/11:00am 40.1 35.9 4.0 11 19.6 SE 15 20 8 11 1010.0 1009.5 0.0
21/10:30am 38.8 35.1 6.5 14 18.1 ESE 15 20 8 11 1010.6 1010.1 0.0
21/10:00am 36.9 33.9 7.8 17 16.5 SSE 13 24 7 13 1011.1 1010.6 0.0
21/09:30am 35.1 33.5 10.2 22 14.5 SSW 9 17 5 9 1011.8 1011.3 0.0
21/09:00am 33.9 32.3 11.7 26 13.2 S 11 17 6 9 1012.3 1011.8 0.0
21/08:30am 31.9 30.7 12.7 31 11.5 SSW 11 17 6 9 1012.5 1012.0 0.0
21/08:00am 30.3 29.2 14.4 38 9.7 SSW 13 17 7 9 1012.6 1012.1 0.0
21/07:30am 29.4 27.7 14.8 41 8.9 SW 17 20 9 11 1012.7 1012.2 0.0
21/07:00am 27.4 27.4 17.3 54 6.4 SW 13 15 7 8 1012.5 1012.0 0.0
21/06:30am 25.6 26.5 18.3 64 4.6 WSW 11 17 6 9 1012.3 1011.8 0.0
21/06:00am 23.2 25.5 19.8 81 2.2 WSW 7 9 4 5 1012.1 1011.6 0.0
21/05:30am 20.9 22.2 17.5 81 2.1 SW 7 9 4 5 1011.9 1011.4 0.0
21/05:00am 22.8 24.3 19.0 79 2.4 SW 9 11 5 6 1011.5 1011.0 0.0
21/04:30am 23.4 24.7 19.3 78 2.6 SW 11 13 6 7 1011.0 1010.5 0.0

Other Formats:

Comma delimited format used in spreadsheet applications
http://www.bom.gov.au/fwo/IDW60801/IDW60801.94204.axf

JavaScript Object Notation format (JSON) in row-major order
http://www.bom.gov.au/fwo/IDW60801/IDW60801.94204.json